createdAt,value
2023-05-25T00:01:49.149Z,74.08
2023-05-25T00:04:18.631Z,73.57
2023-05-25T00:06:47.398Z,74.32
2023-05-25T00:09:15.007Z,74.66
2023-05-25T00:11:42.568Z,74.95
2023-05-25T00:14:10.142Z,74.94
2023-05-25T00:16:37.961Z,75.74
2023-05-25T00:19:10.476Z,75.30
2023-05-25T00:21:41.401Z,75.59
2023-05-25T00:24:09.537Z,75.60
2023-05-25T00:26:37.160Z,75.77
2023-05-25T00:29:04.972Z,75.70
2023-05-25T00:31:33.557Z,75.59
2023-05-25T00:34:01.261Z,75.40
2023-05-25T00:36:30.080Z,75.78
2023-05-25T00:38:57.632Z,76.08
2023-05-25T00:41:26.303Z,76.77
2023-05-25T00:43:53.833Z,76.64
2023-05-25T00:46:22.361Z,76.72
2023-05-25T00:48:50.041Z,76.70
2023-05-25T00:51:17.593Z,77.32
2023-05-25T00:53:46.466Z,76.94
2023-05-25T00:56:16.508Z,77.44
2023-05-25T00:58:44.110Z,77.14
2023-05-25T01:01:12.724Z,78.16
2023-05-25T01:03:41.457Z,78.12
2023-05-25T01:06:11.962Z,78.32
2023-05-25T01:08:41.790Z,78.52
2023-05-25T01:11:12.734Z,79.04
2023-05-25T01:13:41.870Z,78.69
2023-05-25T01:16:10.527Z,78.10
2023-05-25T01:18:41.747Z,78.74
2023-05-25T01:21:13.989Z,78.46
2023-05-25T01:23:44.124Z,77.67
2023-05-25T01:26:14.860Z,78.10
2023-05-25T01:28:46.429Z,77.88
2023-05-25T01:31:15.829Z,77.73
2023-05-25T01:33:44.074Z,78.92
2023-05-25T01:36:12.947Z,78.12
2023-05-25T01:38:40.853Z,78.99
2023-05-25T01:41:08.403Z,77.54
2023-05-25T01:43:36.021Z,78.13
2023-05-25T01:46:09.339Z,78.35
2023-05-25T01:48:43.113Z,78.28
2023-05-25T01:51:19.279Z,79.34
2023-05-25T01:53:50.206Z,79.41
2023-05-25T01:56:18.207Z,80.35
2023-05-25T01:58:46.614Z,79.37
2023-05-25T02:01:15.881Z,79.20
2023-05-25T02:03:44.741Z,80.16
2023-05-25T02:06:13.584Z,79.86
2023-05-25T02:08:41.085Z,79.53
2023-05-25T02:11:08.647Z,79.92
2023-05-25T02:13:36.236Z,80.30
2023-05-25T02:16:03.771Z,79.99
2023-05-25T02:18:31.286Z,80.29
2023-05-25T02:20:58.783Z,80.26
2023-05-25T02:23:27.651Z,79.50
2023-05-25T02:25:56.027Z,80.52
2023-05-25T02:28:23.559Z,81.18
2023-05-25T02:30:51.272Z,80.47
2023-05-25T02:33:20.224Z,81.07
2023-05-25T02:35:47.766Z,80.97
2023-05-25T02:38:15.625Z,80.95
2023-05-25T02:40:44.459Z,81.40
2023-05-25T02:43:11.943Z,81.04
2023-05-25T02:45:39.450Z,81.15
2023-05-25T02:48:07.005Z,80.82
2023-05-25T02:50:34.536Z,81.21
2023-05-25T02:53:02.034Z,80.41
2023-05-25T02:55:29.958Z,81.44
2023-05-25T02:57:59.964Z,80.85
2023-05-25T03:00:27.545Z,80.72
2023-05-25T03:02:55.053Z,81.76
2023-05-25T03:05:22.571Z,81.73
2023-05-25T03:07:50.150Z,82.29
2023-05-25T03:10:17.678Z,82.26
2023-05-25T03:12:45.269Z,81.69
2023-05-25T03:15:14.188Z,82.01
2023-05-25T03:17:41.711Z,82.20
2023-05-25T03:20:10.689Z,82.56
2023-05-25T03:22:38.287Z,82.56
2023-05-25T03:25:06.612Z,82.87
2023-05-25T03:27:34.123Z,83.09
2023-05-25T03:30:02.254Z,82.24
2023-05-25T03:32:32.302Z,82.82
2023-05-25T03:35:00.352Z,82.60
2023-05-25T03:37:27.961Z,82.22
2023-05-25T03:39:55.500Z,82.52
2023-05-25T03:42:23.150Z,83.40
2023-05-25T03:44:50.688Z,82.81
2023-05-25T03:47:18.231Z,82.95
2023-05-25T03:49:47.106Z,82.90
2023-05-25T03:52:14.655Z,83.27
2023-05-25T03:54:42.156Z,83.22
2023-05-25T03:57:09.674Z,83.55
2023-05-25T03:59:37.180Z,83.99
2023-05-25T04:02:04.890Z,84.63
2023-05-25T04:04:32.534Z,83.39
2023-05-25T04:07:01.561Z,83.83
2023-05-25T04:09:29.121Z,83.59
2023-05-25T04:11:56.669Z,83.66
2023-05-25T04:14:24.204Z,83.68
2023-05-25T04:16:52.012Z,84.08
2023-05-25T04:19:19.576Z,82.96
2023-05-25T04:21:47.031Z,83.00
2023-05-25T04:24:16.020Z,83.25
2023-05-25T04:26:43.639Z,83.76
2023-05-25T04:29:11.171Z,84.09
2023-05-25T04:31:39.116Z,83.78
2023-05-25T04:34:06.608Z,84.17
2023-05-25T04:36:34.148Z,84.01
2023-05-25T04:39:04.141Z,83.67
2023-05-25T04:41:33.835Z,82.65
2023-05-25T04:44:07.998Z,83.14
2023-05-25T04:46:38.819Z,82.93
2023-05-25T04:49:08.471Z,83.12
2023-05-25T04:51:36.936Z,83.39
2023-05-25T04:54:04.744Z,82.33
2023-05-25T04:56:33.610Z,82.77
2023-05-25T04:59:01.117Z,81.90
2023-05-25T05:01:29.261Z,82.36
2023-05-25T05:03:57.188Z,82.13
2023-05-25T05:06:25.692Z,82.59
2023-05-25T05:08:53.225Z,82.23
2023-05-25T05:11:20.753Z,81.77
2023-05-25T05:13:49.606Z,81.21
2023-05-25T05:16:17.265Z,81.49
2023-05-25T05:18:44.813Z,81.39
2023-05-25T05:21:12.535Z,80.14
2023-05-25T05:23:40.393Z,80.23
2023-05-25T05:26:10.966Z,79.72
2023-05-25T05:28:38.575Z,79.59
2023-05-25T05:31:08.177Z,79.69
2023-05-25T05:33:35.828Z,79.52
2023-05-25T05:36:04.650Z,79.26
2023-05-25T05:38:32.225Z,78.33
2023-05-25T05:40:59.845Z,78.76
2023-05-25T05:43:27.590Z,78.69
2023-05-25T05:45:55.175Z,78.48
2023-05-25T05:48:24.082Z,77.68
2023-05-25T05:50:52.447Z,77.71
2023-05-25T05:53:20.067Z,77.06
2023-05-25T05:55:49.598Z,76.50
2023-05-25T05:58:19.317Z,76.65
2023-05-25T06:00:46.848Z,75.95
2023-05-25T06:03:14.440Z,76.18
2023-05-25T06:05:43.500Z,74.55
2023-05-25T06:08:11.736Z,74.88
2023-05-25T06:10:39.345Z,75.21
2023-05-25T06:13:07.843Z,74.74
2023-05-25T06:15:36.277Z,74.48
2023-05-25T06:18:04.012Z,74.13
2023-05-25T06:20:31.579Z,73.67
2023-05-25T06:23:00.525Z,74.10
2023-05-25T06:25:28.094Z,73.73
2023-05-25T06:27:55.807Z,72.44
2023-05-25T06:30:23.501Z,72.44
2023-05-25T06:32:51.198Z,72.30
2023-05-25T06:35:20.873Z,71.66
2023-05-25T06:37:49.220Z,70.39
2023-05-25T06:40:18.144Z,69.47
2023-05-25T06:42:45.713Z,70.14
2023-05-25T06:45:14.232Z,69.61
2023-05-25T06:47:41.737Z,69.44
2023-05-25T06:50:10.379Z,67.89
2023-05-25T06:52:37.924Z,68.47
2023-05-25T06:55:06.055Z,67.62
2023-05-25T06:57:34.877Z,67.29
2023-05-25T07:00:03.048Z,67.77
2023-05-25T07:02:30.600Z,67.46
2023-05-25T07:04:58.174Z,67.12
2023-05-25T07:07:25.779Z,66.65
2023-05-25T07:09:53.356Z,66.77
2023-05-25T07:12:21.402Z,66.23
2023-05-25T07:14:50.340Z,66.07
2023-05-25T07:17:17.924Z,66.32
2023-05-25T07:19:45.526Z,64.92
2023-05-25T07:22:13.093Z,64.76
2023-05-25T07:24:40.643Z,65.10
2023-05-25T07:27:08.193Z,64.47
2023-05-25T07:29:35.750Z,64.02
2023-05-25T07:32:05.255Z,62.55
2023-05-25T07:34:32.778Z,63.71
2023-05-25T07:37:00.384Z,63.99
2023-05-25T07:39:27.986Z,63.75
2023-05-25T07:41:55.560Z,63.45
2023-05-25T07:44:23.100Z,62.91
2023-05-25T07:46:50.794Z,63.42
2023-05-25T07:49:19.667Z,63.00
2023-05-25T07:51:47.228Z,62.51
2023-05-25T07:54:14.769Z,61.55
2023-05-25T07:56:42.478Z,61.61
2023-05-25T07:59:10.076Z,61.71
2023-05-25T08:01:38.899Z,61.46
2023-05-25T08:04:06.553Z,59.52
2023-05-25T08:06:35.615Z,59.10
2023-05-25T08:09:04.796Z,59.39
2023-05-25T08:11:32.456Z,58.40
2023-05-25T08:14:00.660Z,59.35
2023-05-25T08:16:28.357Z,59.78
2023-05-25T08:18:55.966Z,58.70
2023-05-25T08:21:23.764Z,58.40
2023-05-25T08:23:53.964Z,58.31
2023-05-25T08:28:56.357Z,56.24
2023-05-25T08:31:24.009Z,57.06
2023-05-25T08:33:51.712Z,57.48
2023-05-25T08:36:19.747Z,56.28
2023-05-25T08:38:47.228Z,55.83
2023-05-25T08:41:16.690Z,55.91
2023-05-25T08:43:44.340Z,55.68
2023-05-25T08:46:12.335Z,56.83
2023-05-25T08:48:42.370Z,55.45
2023-05-25T08:51:11.705Z,55.85
2023-05-25T08:53:41.525Z,54.97
2023-05-25T08:56:12.572Z,54.45
2023-05-25T08:58:47.106Z,54.35
2023-05-25T09:01:16.486Z,56.64
2023-05-25T09:03:45.048Z,55.89
2023-05-25T09:06:12.919Z,54.26
2023-05-25T09:08:40.648Z,53.61
2023-05-25T09:11:09.914Z,52.72
2023-05-25T09:13:38.177Z,51.70
2023-05-25T09:16:07.524Z,53.50
2023-05-25T09:18:35.327Z,52.19
2023-05-25T09:21:03.453Z,52.29
2023-05-25T09:23:31.593Z,52.21
2023-05-25T09:25:59.369Z,49.66
2023-05-25T09:28:27.774Z,49.43
2023-05-25T09:30:55.649Z,50.23
2023-05-25T09:33:24.670Z,51.42
2023-05-25T09:35:52.562Z,50.83
2023-05-25T09:38:20.678Z,50.30
2023-05-25T09:40:48.546Z,48.74
2023-05-25T09:43:25.344Z,50.84
2023-05-25T09:45:56.547Z,49.67
2023-05-25T09:48:25.460Z,49.31
2023-05-25T09:50:52.968Z,49.62
2023-05-25T09:53:20.508Z,50.82
2023-05-25T09:55:53.750Z,51.07
2023-05-25T09:58:23.582Z,49.74
2023-05-25T10:00:54.614Z,51.18
2023-05-25T10:03:22.481Z,49.74
2023-05-25T10:05:53.118Z,50.48
2023-05-25T10:08:22.166Z,48.52
2023-05-25T10:10:51.197Z,49.06
2023-05-25T10:13:21.789Z,50.13
2023-05-25T10:15:50.129Z,49.05
2023-05-25T10:18:20.912Z,49.87
2023-05-25T10:20:51.363Z,50.50
2023-05-25T10:23:19.549Z,49.08
2023-05-25T10:25:50.762Z,49.31
2023-05-25T10:28:21.765Z,49.09
2023-05-25T10:30:50.504Z,48.27
2023-05-25T10:33:18.378Z,47.56
2023-05-25T10:36:02.410Z,47.65
2023-05-25T10:38:35.782Z,47.78
2023-05-25T10:41:05.457Z,47.66
2023-05-25T10:43:33.514Z,47.59
2023-05-25T10:46:01.100Z,47.48
2023-05-25T10:48:36.866Z,47.54
2023-05-25T10:51:04.633Z,48.20
2023-05-25T10:53:32.230Z,48.02
2023-05-25T10:56:05.360Z,47.12
2023-05-25T10:58:34.103Z,44.26
2023-05-25T11:01:03.235Z,45.40
2023-05-25T11:03:51.456Z,46.01
2023-05-25T11:06:21.466Z,45.78
2023-05-25T11:08:54.983Z,44.96
2023-05-25T11:11:59.768Z,45.73
2023-05-25T11:14:30.122Z,46.53
2023-05-25T11:17:10.340Z,47.33
2023-05-25T11:19:42.916Z,46.66
2023-05-25T11:22:20.207Z,46.71
2023-05-25T11:24:48.004Z,45.00
2023-05-25T11:27:16.852Z,45.56
2023-05-25T11:29:44.560Z,46.22
2023-05-25T11:32:16.175Z,45.12
2023-05-25T11:34:46.423Z,44.04
2023-05-25T11:37:16.485Z,44.28
2023-05-25T11:39:47.668Z,45.38
2023-05-25T11:42:17.095Z,46.29
2023-05-25T11:44:45.143Z,46.50
2023-05-25T11:47:14.405Z,44.46
2023-05-25T11:49:44.189Z,45.61
2023-05-25T11:52:11.827Z,44.23
2023-05-25T11:54:41.117Z,43.00
2023-05-25T11:57:17.892Z,43.62
2023-05-25T11:59:50.330Z,42.71
2023-05-25T12:02:18.193Z,43.83
2023-05-25T12:04:54.185Z,43.96
2023-05-25T12:07:21.827Z,44.74
2023-05-25T12:09:49.557Z,44.01
2023-05-25T12:12:18.393Z,43.97
2023-05-25T12:14:49.219Z,44.40
2023-05-25T12:17:17.423Z,44.58
2023-05-25T12:19:45.556Z,44.43
2023-05-25T12:22:14.062Z,43.68
2023-05-25T12:24:41.900Z,43.81
2023-05-25T12:27:19.508Z,44.18
2023-05-25T12:29:47.432Z,44.42
2023-05-25T12:32:14.960Z,44.02
2023-05-25T12:34:42.880Z,44.44
2023-05-25T12:37:18.933Z,45.23
2023-05-25T12:39:46.614Z,44.50
2023-05-25T12:42:15.992Z,44.61
2023-05-25T12:44:47.281Z,44.85
2023-05-25T12:47:16.449Z,44.71
2023-05-25T12:49:45.592Z,43.99
2023-05-25T12:52:32.402Z,44.00
2023-05-25T12:55:00.146Z,42.81
2023-05-25T12:57:36.113Z,43.16
2023-05-25T13:00:06.372Z,44.03
2023-05-25T13:02:33.927Z,43.66
2023-05-25T13:05:57.467Z,44.30
2023-05-25T13:08:25.189Z,44.73
2023-05-25T13:10:52.659Z,43.85
2023-05-25T13:13:20.354Z,43.22
2023-05-25T13:15:49.197Z,43.66
2023-05-25T13:18:16.696Z,43.49
2023-05-25T13:20:45.336Z,44.71
2023-05-25T13:23:14.868Z,44.07
2023-05-25T13:25:42.464Z,44.52
2023-05-25T13:28:09.997Z,43.96
2023-05-25T13:30:37.539Z,43.10
2023-05-25T13:33:06.486Z,43.77
2023-05-25T13:35:58.018Z,43.58
2023-05-25T13:38:25.921Z,43.39
2023-05-25T13:40:53.465Z,43.78
2023-05-25T13:43:20.959Z,43.48
2023-05-25T13:45:48.562Z,43.56
2023-05-25T13:48:17.933Z,42.11
2023-05-25T13:50:45.935Z,42.79
2023-05-25T13:53:14.073Z,42.81
2023-05-25T13:55:41.584Z,42.70
2023-05-25T13:58:09.261Z,43.46
2023-05-25T14:00:36.824Z,44.00
2023-05-25T14:03:04.426Z,43.29
2023-05-25T14:05:33.329Z,43.61
2023-05-25T14:08:02.564Z,43.58
2023-05-25T14:10:30.083Z,43.18
2023-05-25T14:12:57.608Z,42.50
2023-05-25T14:15:25.381Z,43.64
2023-05-25T14:17:54.542Z,42.89
2023-05-25T14:20:25.949Z,43.10
2023-05-25T14:22:55.198Z,43.13
2023-05-25T14:25:22.729Z,42.90
2023-05-25T14:27:50.286Z,43.02
2023-05-25T14:30:17.942Z,42.53
2023-05-25T14:32:45.584Z,42.36
2023-05-25T14:35:13.120Z,42.99
2023-05-25T14:37:41.483Z,42.68
2023-05-25T14:40:11.918Z,42.42
2023-05-25T14:42:39.462Z,42.55
2023-05-25T14:45:10.803Z,43.10
2023-05-25T14:47:39.242Z,43.11
2023-05-25T14:50:07.813Z,43.10
2023-05-25T14:52:36.441Z,42.82
2023-05-25T14:55:04.069Z,42.50
2023-05-25T14:57:32.942Z,42.81
2023-05-25T15:00:00.574Z,42.80
2023-05-25T15:02:28.301Z,42.38
2023-05-25T15:04:55.864Z,43.14
2023-05-25T15:07:23.396Z,43.18
2023-05-25T15:09:50.983Z,43.63
2023-05-25T15:12:18.488Z,43.27
2023-05-25T15:14:47.408Z,43.07
2023-05-25T15:17:14.954Z,43.36
2023-05-25T15:19:42.438Z,43.57
2023-05-25T15:22:09.958Z,43.60
2023-05-25T15:24:37.477Z,43.63
2023-05-25T15:27:06.439Z,43.70
2023-05-25T15:29:33.957Z,43.59
2023-05-25T15:32:02.982Z,43.41
2023-05-25T15:34:30.677Z,43.38
2023-05-25T15:36:58.163Z,43.97
2023-05-25T15:39:27.564Z,43.33
2023-05-25T15:41:55.037Z,43.36
2023-05-25T15:44:22.551Z,43.40
2023-05-25T15:46:50.243Z,43.02
2023-05-25T15:49:19.887Z,43.43
2023-05-25T15:51:47.410Z,43.55
2023-05-25T15:54:15.185Z,43.28
2023-05-25T15:56:42.852Z,42.90
2023-05-25T15:59:12.107Z,43.25
2023-05-25T16:01:39.664Z,44.58
2023-05-25T16:04:07.251Z,43.05
2023-05-25T16:06:36.297Z,43.48
2023-05-25T16:09:04.356Z,43.43
2023-05-25T16:11:33.915Z,43.39
2023-05-25T16:14:01.461Z,43.15
2023-05-25T16:16:29.578Z,43.29
2023-05-25T16:18:57.283Z,43.71
2023-05-25T16:21:29.667Z,43.43
2023-05-25T16:23:58.490Z,43.41
2023-05-25T16:26:26.968Z,43.42
2023-05-25T16:28:54.507Z,43.55
2023-05-25T16:31:22.065Z,43.31
2023-05-25T16:33:49.591Z,43.31
2023-05-25T16:36:17.187Z,43.08
2023-05-25T16:38:45.696Z,43.41
2023-05-25T16:41:14.657Z,43.37
2023-05-25T16:43:42.170Z,43.01
2023-05-25T16:46:09.757Z,42.82
2023-05-25T16:48:37.277Z,42.42
2023-05-25T16:51:04.985Z,43.02
2023-05-25T16:53:32.460Z,42.68
2023-05-25T16:56:00.134Z,42.71
2023-05-25T16:58:29.023Z,42.45
2023-05-25T17:00:59.507Z,41.43
2023-05-25T17:03:27.220Z,41.26
2023-05-25T17:05:54.886Z,40.64
2023-05-25T17:08:22.978Z,40.98
2023-05-25T17:10:50.733Z,40.46
2023-05-25T17:13:18.264Z,40.60
2023-05-25T17:15:47.387Z,40.61
2023-05-25T17:18:15.293Z,41.19
2023-05-25T17:20:42.920Z,40.69
2023-05-25T17:23:10.745Z,40.91
2023-05-25T17:25:39.274Z,40.27
2023-05-25T17:28:07.265Z,40.57
2023-05-25T17:30:34.932Z,40.67
2023-05-25T17:33:03.864Z,40.93
2023-05-25T17:35:38.194Z,40.65
2023-05-25T17:38:05.994Z,40.43
2023-05-25T17:40:33.610Z,40.18
2023-05-25T17:43:01.197Z,40.17
2023-05-25T17:45:28.892Z,40.02
2023-05-25T17:47:57.362Z,39.82
2023-05-25T17:50:28.792Z,39.79
2023-05-25T17:52:56.513Z,39.92
2023-05-25T17:55:26.982Z,39.85
2023-05-25T17:57:54.614Z,39.90
2023-05-25T18:00:28.508Z,40.14
2023-05-25T18:02:56.248Z,39.65
2023-05-25T18:05:24.110Z,39.56
2023-05-25T18:07:53.128Z,39.44
2023-05-25T18:10:20.783Z,39.19
2023-05-25T18:12:52.209Z,39.04
2023-05-25T18:15:19.940Z,40.25
2023-05-25T18:17:47.495Z,40.87
2023-05-25T18:20:15.192Z,41.36
2023-05-25T18:22:42.762Z,41.63
2023-05-25T18:25:11.797Z,41.26
2023-05-25T18:27:39.305Z,42.27
2023-05-25T18:30:08.446Z,43.06
2023-05-25T18:32:36.178Z,43.43
2023-05-25T18:35:03.896Z,44.15
2023-05-25T18:37:34.214Z,44.52
2023-05-25T18:40:01.844Z,45.39
2023-05-25T18:42:30.782Z,45.65
2023-05-25T18:44:58.363Z,46.51
2023-05-25T18:47:26.545Z,46.53
2023-05-25T18:49:54.221Z,47.60
2023-05-25T18:52:22.367Z,48.51
2023-05-25T18:54:49.921Z,48.82
2023-05-25T18:57:17.530Z,49.35
2023-05-25T18:59:46.929Z,49.50
2023-05-25T19:02:14.502Z,49.79
2023-05-25T19:04:42.004Z,50.40
2023-05-25T19:07:09.522Z,50.56
2023-05-25T19:09:37.024Z,50.75
2023-05-25T19:12:06.982Z,51.01
2023-05-25T19:14:34.489Z,51.30
2023-05-25T19:17:03.361Z,51.12
2023-05-25T19:19:30.891Z,51.63
2023-05-25T19:21:58.442Z,51.87
2023-05-25T19:24:25.925Z,51.92
2023-05-25T19:26:53.410Z,52.37
2023-05-25T19:29:21.171Z,52.28
2023-05-25T19:31:48.862Z,52.82
2023-05-25T19:34:18.300Z,53.09
2023-05-25T19:36:46.253Z,53.15
2023-05-25T19:39:14.812Z,53.29
2023-05-25T19:41:42.357Z,53.42
2023-05-25T19:44:10.471Z,53.74
2023-05-25T19:46:39.737Z,54.33
2023-05-25T19:49:07.292Z,54.69
2023-05-25T19:51:37.175Z,55.21
2023-05-25T19:54:04.796Z,55.18
2023-05-25T19:56:32.414Z,55.44
2023-05-25T19:59:00.222Z,55.94
2023-05-25T20:01:27.806Z,56.10
2023-05-25T20:03:55.499Z,56.36
2023-05-25T20:06:23.053Z,56.37
2023-05-25T20:08:51.908Z,56.62
2023-05-25T20:11:19.448Z,56.82
2023-05-25T20:13:48.097Z,57.13
2023-05-25T20:16:15.668Z,57.20
2023-05-25T20:18:44.540Z,57.95
2023-05-25T20:21:12.171Z,57.71
2023-05-25T20:23:39.791Z,58.03
2023-05-25T20:26:08.677Z,58.49
2023-05-25T20:28:36.206Z,58.61
2023-05-25T20:31:03.792Z,58.47
2023-05-25T20:33:31.315Z,59.42
2023-05-25T20:35:58.865Z,59.17
2023-05-25T20:38:26.407Z,59.30
2023-05-25T20:40:53.954Z,59.31
2023-05-25T20:43:22.909Z,59.65
2023-05-25T20:45:50.592Z,60.20
2023-05-25T20:48:18.177Z,60.52
2023-05-25T20:50:45.901Z,60.55
2023-05-25T20:53:18.355Z,60.60
2023-05-25T20:55:47.278Z,60.84
2023-05-25T20:58:15.215Z,61.01
2023-05-25T21:00:46.311Z,61.03
2023-05-25T21:03:13.937Z,61.69
2023-05-25T21:05:41.631Z,61.81
2023-05-25T21:08:09.312Z,61.88
2023-05-25T21:10:37.146Z,62.30
2023-05-25T21:13:04.739Z,62.19
2023-05-25T21:15:32.358Z,62.42
2023-05-25T21:18:03.350Z,63.14
2023-05-25T21:20:31.061Z,62.60
2023-05-25T21:22:58.717Z,62.95
2023-05-25T21:25:26.204Z,62.57
2023-05-25T21:27:55.444Z,63.07
2023-05-25T21:30:24.629Z,63.06
2023-05-25T21:32:52.285Z,63.53
2023-05-25T21:35:21.295Z,64.03
2023-05-25T21:37:48.960Z,64.07
2023-05-25T21:40:16.683Z,64.03
2023-05-25T21:42:44.180Z,63.97
2023-05-25T21:45:11.732Z,63.86
2023-05-25T21:47:39.322Z,64.40
2023-05-25T21:52:37.710Z,64.12
2023-05-25T21:55:05.957Z,64.46
2023-05-25T21:57:33.464Z,64.54
2023-05-25T22:00:01.033Z,64.68
2023-05-25T22:02:28.730Z,64.95
2023-05-25T22:04:56.292Z,65.09
2023-05-25T22:07:23.849Z,65.00
2023-05-25T22:09:52.703Z,65.12
2023-05-25T22:12:21.100Z,64.98
2023-05-25T22:14:48.800Z,64.82
2023-05-25T22:17:18.788Z,65.19
2023-05-25T22:19:59.049Z,64.73
2023-05-25T22:22:33.888Z,65.15
2023-05-25T22:25:02.847Z,65.32
2023-05-25T22:27:30.395Z,65.03
2023-05-25T22:29:58.011Z,65.28
2023-05-25T22:32:26.837Z,65.11
2023-05-25T22:34:54.426Z,65.34
2023-05-25T22:37:22.066Z,65.18
2023-05-25T22:39:49.905Z,65.59
2023-05-25T22:42:18.804Z,65.45
2023-05-25T22:44:46.522Z,65.15
2023-05-25T22:47:14.323Z,65.16
2023-05-25T22:49:44.434Z,65.12
2023-05-25T22:52:12.757Z,65.55
2023-05-25T22:54:40.678Z,65.54
2023-05-25T22:57:10.527Z,65.15
2023-05-25T22:59:39.411Z,65.41
2023-05-25T23:02:07.429Z,65.31
2023-05-25T23:04:36.300Z,65.54
2023-05-25T23:07:03.939Z,65.44
2023-05-25T23:09:31.483Z,65.98
2023-05-25T23:11:58.975Z,65.71
2023-05-25T23:14:26.826Z,65.75
2023-05-25T23:16:55.804Z,65.80
2023-05-25T23:19:25.772Z,66.06
2023-05-25T23:21:54.230Z,65.75
2023-05-25T23:24:21.766Z,65.87
2023-05-25T23:26:49.598Z,66.17
2023-05-25T23:29:17.130Z,65.86
2023-05-25T23:31:44.636Z,65.91
2023-05-25T23:34:13.580Z,65.89
2023-05-25T23:36:42.716Z,66.06
2023-05-25T23:39:10.225Z,66.05
2023-05-25T23:41:37.822Z,66.12
2023-05-25T23:44:05.522Z,66.29
2023-05-25T23:46:33.091Z,66.07
2023-05-25T23:49:00.680Z,66.26
2023-05-25T23:51:29.541Z,66.40
2023-05-25T23:53:57.060Z,66.94
2023-05-25T23:56:24.728Z,66.51
2023-05-25T23:58:52.514Z,66.70
